Airfield :
LOGIN :

Register | Disclaimer

   EN    FR    IT 

 










Legend :    VFR   Marginal VFR   IFR   Intensive IFR   Very Intensive IFR
Visi :
Ceiling :
>= 8 km
>= 3000ft
5 to 8 km
1000 to 3000 ft
1500m to 5 km
500 to 1000 ft
800 to 1500m
200 to 500 ft
< 800m
< 200 ft
Symbols :   Thunderstorms  Fog  Heavy snow  Heavy precipitations  Wind > 20 kt
SIGMETs :     Misc.  Thunderstorms  Icing  Turbulence  Mountain Waves  Volcanic Ashes







- Airport Elevation : 124 ft
- IATA code : RNS
- Download approach charts


LFRN - Rennes

CURRENT METAR :
  • 112030Z AUTO 12010KT 5000 BR OVC005 05/04 Q1021 NOSIG

EXPIRED METARs :
  • 112000Z AUTO 12010KT 6000 OVC005 05/05 Q1022 TEMPO 3000 BR
  • 111930Z AUTO 12008KT 5000 BR OVC004 05/05 Q1022 TEMPO BKN005
  • 111900Z AUTO 12009KT 5000 BR OVC004 05/05 Q1022 TEMPO BKN005
  • 111830Z AUTO 12007KT 6000 OVC004 05/05 Q1022 TEMPO 3000 BR BKN005
  • 111800Z AUTO 12007KT 6000 OVC005 05/05 Q1022 TEMPO 3000 BR

TAF TAF LFRN
Valid from the 11 at 18:00 until the 12 at 18:00 UTC


111700Z 1118/1218 13010KT 6000 SCT020
TEMPO 1118/1202 3000 BR BKN005
BECMG 1200/1202 5000 RA BKN015
TEMPO 1202/1208 3000 RA BKN005
BECMG 1209/1212 9999 NSW BKN030
ATIS : +33 2 99 67 72 50
No reported NOTAMs for that airfield.



MET'MAP, your aeronautical weather chart ! - Copyright ORBIFLY December 2007 - Disclaimer

ORBIFLY MET'MAP TEAM :

Programming & Development : Alexandra Zaïnal
Concept & Development : Baudouin d'Aumeries
Co-Development & Prog : Marc-Olivier Méhu
Technical & hardware support : Manuel Goepfert

Contact : metmap@orbifly.com




SOURCES & CREDITS :

   NOAA